Time;durP1;ratioP1;P1;durP2;ratioP2;P2;SDS_P1;SDS_P2;PMS_P1;PMS_P2;Temp;Humidity;BMP_temperature;BMP_pressure;BME280_temperature;BME280_humidity;BME280_pressure;Samples;Min_cycle;Max_cycle;Signal;HPM_P1;HPM_P2
2022/05/15 00:02:23;;;;;;;6.10;3.88;;;21.30;99.90;;;;;;5065407;28;20204;-84
2022/05/15 00:04:55;;;;;;;5.70;3.50;;;21.40;99.90;;;;;;5066651;28;20593;-84
2022/05/15 00:07:25;;;;;;;5.50;3.63;;;21.40;99.90;;;;;;5064698;28;20247;-84
2022/05/15 00:09:56;;;;;;;5.68;3.60;;;21.60;99.90;;;;;;5056529;28;20267;-85
2022/05/15 00:12:26;;;;;;;5.45;3.40;;;21.80;99.90;;;;;;5063167;28;20174;-84
2022/05/15 00:14:59;;;;;;;6.18;4.35;;;21.80;99.90;;;;;;5057629;28;20190;-84
2022/05/15 00:17:30;;;;;;;5.25;3.20;;;21.80;99.90;;;;;;5062904;28;20193;-85
2022/05/15 00:20:00;;;;;;;6.38;3.60;;;21.80;99.90;;;;;;5059279;28;20246;-84
2022/05/15 00:22:35;;;;;;;7.15;3.88;;;21.90;99.90;;;;;;5074085;28;20204;-84
2022/05/15 00:25:06;;;;;;;8.05;3.67;;;21.90;99.90;;;;;;5067137;28;20246;-84
2022/05/15 00:27:37;;;;;;;3.33;3.03;;;21.90;99.90;;;;;;5062984;28;20181;-84
2022/05/15 00:30:10;;;;;;;4.78;3.03;;;21.90;99.90;;;;;;5064090;28;20251;-85
2022/05/15 00:32:41;;;;;;;6.00;3.13;;;21.90;99.90;;;;;;5060146;28;20247;-84
2022/05/15 00:35:12;;;;;;;3.92;2.88;;;22.00;99.90;;;;;;5067223;28;20193;-86
2022/05/15 00:37:42;;;;;;;4.30;3.20;;;22.10;99.90;;;;;;5064622;28;20181;-86
2022/05/15 00:40:15;;;;;;;4.82;3.28;;;22.10;99.90;;;;;;5065969;28;20198;-86
2022/05/15 00:42:46;;;;;;;3.22;2.80;;;22.10;99.90;;;;;;5060591;28;20196;-86
2022/05/15 00:45:21;;;;;;;20.35;7.05;;;22.10;99.90;;;;;;5068491;28;20240;-84
2022/05/15 00:47:52;;;;;;;15.07;9.98;;;22.20;99.90;;;;;;5065226;28;20289;-87
2022/05/15 00:50:26;;;;;;;3.63;2.70;;;22.30;99.90;;;;;;5066433;28;20186;-86
2022/05/15 00:53:01;;;;;;;11.18;5.82;;;22.30;99.90;;;;;;5066931;28;20215;-85
2022/05/15 00:55:38;;;;;;;4.38;2.65;;;22.50;99.90;;;;;;5061230;28;20197;-84
2022/05/15 00:58:13;;;;;;;5.55;3.83;;;22.60;99.90;;;;;;5064909;28;20189;-85
2022/05/15 01:00:45;;;;;;;4.68;2.55;;;22.60;99.90;;;;;;5059112;28;20595;-85
2022/05/15 01:03:18;;;;;;;3.22;2.83;;;22.70;99.90;;;;;;5060238;28;20190;-86
2022/05/15 01:05:51;;;;;;;4.10;1.85;;;22.80;99.90;;;;;;5065876;28;20663;-84
2022/05/15 01:08:23;;;;;;;3.13;2.53;;;22.80;99.90;;;;;;5068976;28;20274;-85
2022/05/15 01:11:01;;;;;;;4.07;2.30;;;22.90;99.90;;;;;;5064450;28;20628;-85
2022/05/15 01:13:35;;;;;;;2.90;1.65;;;22.90;99.90;;;;;;5071907;28;20189;-85
2022/05/15 01:16:09;;;;;;;3.50;1.70;;;22.90;99.90;;;;;;5059636;28;20296;-86
2022/05/15 01:18:41;;;;;;;3.25;1.70;;;22.90;99.90;;;;;;5066443;28;20199;-85
2022/05/15 01:21:35;;;;;;;3.38;1.90;;;23.00;99.90;;;;;;5069023;28;20231;-85
2022/05/15 01:24:07;;;;;;;4.20;2.15;;;23.10;99.90;;;;;;5060177;28;20281;-86
2022/05/15 01:26:40;;;;;;;2.30;1.80;;;23.10;99.90;;;;;;5060361;28;20260;-85
2022/05/15 01:29:11;;;;;;;3.17;2.20;;;23.20;99.90;;;;;;5059533;28;20221;-84
2022/05/15 01:31:41;;;;;;;3.47;2.10;;;23.20;99.90;;;;;;5058248;28;20193;-86
2022/05/15 01:34:13;;;;;;;2.88;1.70;;;23.20;99.90;;;;;;5060802;28;20649;-85
2022/05/15 01:36:45;;;;;;;3.42;1.55;;;23.20;99.90;;;;;;5068590;28;20201;-85
2022/05/15 01:39:16;;;;;;;2.33;1.55;;;23.10;99.90;;;;;;5060942;28;20194;-85
2022/05/15 01:41:47;;;;;;;2.17;1.50;;;23.10;99.90;;;;;;5067234;28;20200;-85
2022/05/15 01:44:18;;;;;;;1.77;1.48;;;23.10;99.90;;;;;;5069779;28;20193;-85
2022/05/15 01:46:48;;;;;;;1.73;1.25;;;23.30;99.90;;;;;;5064002;28;20220;-85
2022/05/15 01:49:20;;;;;;;3.08;1.40;;;23.40;99.90;;;;;;5064223;28;20559;-86
2022/05/15 01:51:52;;;;;;;2.00;1.50;;;23.60;99.90;;;;;;5064646;28;20197;-85
2022/05/15 01:54:23;;;;;;;4.03;1.63;;;23.80;99.90;;;;;;5064170;28;20567;-85
2022/05/15 01:56:54;;;;;;;2.20;1.60;;;23.80;99.90;;;;;;5065705;28;20185;-85
2022/05/15 01:59:24;;;;;;;2.65;1.42;;;24.00;99.90;;;;;;5059421;28;20198;-86
2022/05/15 02:01:55;;;;;;;2.47;1.50;;;24.10;99.90;;;;;;5065641;28;20192;-86
2022/05/15 02:04:26;;;;;;;3.10;1.63;;;24.10;99.90;;;;;;5068141;28;20197;-86
2022/05/15 02:06:58;;;;;;;2.50;1.50;;;24.20;99.90;;;;;;5064516;28;20713;-86
2022/05/15 02:09:29;;;;;;;1.73;1.30;;;24.20;99.90;;;;;;5066111;28;20244;-87
2022/05/15 02:12:00;;;;;;;3.08;1.52;;;24.20;99.90;;;;;;5065090;28;20197;-86
2022/05/15 02:14:30;;;;;;;2.58;1.45;;;24.20;99.90;;;;;;5067682;28;20270;-85
2022/05/15 02:17:01;;;;;;;2.22;1.75;;;24.40;99.90;;;;;;5073441;28;20193;-87
2022/05/15 02:19:31;;;;;;;1.80;1.70;;;24.60;99.90;;;;;;5070286;28;20205;-85
2022/05/15 02:22:04;;;;;;;4.25;1.58;;;24.60;99.90;;;;;;5065605;28;20204;-85
2022/05/15 02:24:35;;;;;;;3.20;2.13;;;24.60;99.90;;;;;;5072455;28;20673;-85
2022/05/15 02:27:05;;;;;;;4.13;2.40;;;24.60;99.90;;;;;;5071311;28;20201;-85
2022/05/15 02:29:36;;;;;;;2.28;1.70;;;24.60;99.90;;;;;;5064950;28;20690;-85
2022/05/15 02:32:08;;;;;;;3.47;1.70;;;24.60;99.90;;;;;;5068084;28;20246;-86
2022/05/15 02:34:39;;;;;;;3.55;1.50;;;24.50;99.90;;;;;;5073926;28;20204;-85
2022/05/15 02:37:11;;;;;;;3.45;1.73;;;24.40;99.90;;;;;;5075034;28;20188;-85
2022/05/15 02:39:42;;;;;;;1.67;1.50;;;24.40;99.90;;;;;;5068109;28;20726;-85
2022/05/15 02:42:13;;;;;;;2.15;1.38;;;24.40;99.90;;;;;;5072338;28;20197;-85
2022/05/15 02:44:43;;;;;;;3.08;1.20;;;24.30;99.90;;;;;;5073837;28;20181;-86
2022/05/15 02:47:14;;;;;;;2.15;1.20;;;24.20;99.90;;;;;;5073054;28;20188;-85
2022/05/15 02:52:33;;;;;;;1.00;0.80;;;24.10;99.90;;;;;;5069865;28;20695;-85
2022/05/15 02:55:05;;;;;;;2.83;1.08;;;24.00;99.90;;;;;;5066031;28;20621;-87
2022/05/15 02:57:36;;;;;;;1.52;0.90;;;24.00;99.90;;;;;;5077025;28;20181;-86
2022/05/15 03:00:08;;;;;;;1.80;1.10;;;23.90;99.90;;;;;;5077784;28;20193;-84
2022/05/15 03:02:39;;;;;;;2.90;1.27;;;23.80;99.90;;;;;;5076768;28;20192;-85
2022/05/15 03:05:12;;;;;;;1.75;1.20;;;23.80;99.90;;;;;;5074162;28;20699;-86
2022/05/15 03:07:44;;;;;;;1.70;1.20;;;23.80;99.90;;;;;;5075306;28;20199;-86
2022/05/15 03:10:18;;;;;;;4.25;1.60;;;23.80;99.90;;;;;;5050194;28;20215;-86
2022/05/15 03:12:49;;;;;;;2.67;1.55;;;23.70;99.90;;;;;;5055420;28;20268;-85
2022/05/15 03:15:20;;;;;;;1.42;1.33;;;23.70;99.90;;;;;;5049853;28;20185;-85
2022/05/15 03:17:51;;;;;;;2.45;1.30;;;23.70;99.90;;;;;;5054166;28;20268;-85
2022/05/15 03:20:27;;;;;;;2.17;1.70;;;23.70;99.90;;;;;;5053527;28;20251;-84
2022/05/15 03:23:00;;;;;;;1.73;1.35;;;23.70;99.90;;;;;;5052622;28;20197;-85
2022/05/15 03:25:33;;;;;;;2.47;1.40;;;23.70;99.90;;;;;;5052952;28;20280;-85
2022/05/15 03:28:04;;;;;;;3.60;1.80;;;23.70;99.90;;;;;;5052228;28;20189;-84
2022/05/15 03:30:35;;;;;;;3.08;1.50;;;23.70;99.90;;;;;;5048543;28;20224;-84
2022/05/15 03:33:05;;;;;;;9.45;3.92;;;23.70;99.90;;;;;;5048837;28;20209;-84
2022/05/15 03:35:36;;;;;;;4.72;2.50;;;23.70;99.90;;;;;;5042800;28;20194;-85
2022/05/15 03:38:10;;;;;;;3.42;1.90;;;23.80;99.90;;;;;;5052889;28;20190;-84
2022/05/15 03:40:40;;;;;;;2.60;1.30;;;23.80;99.90;;;;;;5050690;28;20269;-85
2022/05/15 03:43:11;;;;;;;1.80;1.42;;;23.80;99.90;;;;;;5051892;28;20197;-84
2022/05/15 03:45:41;;;;;;;5.25;2.20;;;23.70;99.90;;;;;;5048839;28;20723;-84
2022/05/15 03:48:12;;;;;;;5.07;1.77;;;23.70;99.90;;;;;;5045074;28;20198;-85
2022/05/15 03:50:43;;;;;;;3.35;1.30;;;23.70;99.90;;;;;;5047825;28;20221;-85
2022/05/15 03:53:15;;;;;;;1.88;1.20;;;23.60;99.90;;;;;;5048066;28;20222;-85
2022/05/15 03:55:46;;;;;;;1.42;1.20;;;23.60;99.90;;;;;;5047602;28;20205;-84
2022/05/15 03:58:16;;;;;;;2.30;1.60;;;23.50;99.90;;;;;;5046198;28;20187;-85
2022/05/15 04:00:47;;;;;;;2.03;1.60;;;23.60;99.90;;;;;;5043731;28;20244;-86
2022/05/15 04:03:18;;;;;;;2.25;1.40;;;23.60;99.90;;;;;;5050311;28;20189;-86
2022/05/15 04:05:49;;;;;;;2.30;1.60;;;23.60;99.90;;;;;;5046737;28;20596;-84
2022/05/15 04:08:21;;;;;;;2.10;1.50;;;23.60;99.90;;;;;;5051421;28;20229;-85
2022/05/15 04:10:52;;;;;;;1.55;1.30;;;23.60;99.90;;;;;;5068200;28;20312;-84
2022/05/15 04:13:23;;;;;;;2.88;1.40;;;23.60;99.90;;;;;;5070479;28;20189;-87
2022/05/15 04:15:53;;;;;;;2.40;1.13;;;23.60;99.90;;;;;;5070225;28;20189;-85
2022/05/15 04:18:24;;;;;;;2.63;1.50;;;23.60;99.90;;;;;;5066331;28;20188;-85
2022/05/15 04:20:55;;;;;;;2.00;1.55;;;23.60;99.90;;;;;;5068862;28;20650;-85
2022/05/15 04:23:27;;;;;;;3.80;1.50;;;23.50;99.90;;;;;;5066316;28;20262;-87
2022/05/15 04:25:58;;;;;;;1.88;1.60;;;23.50;99.90;;;;;;5062744;28;20185;-84
2022/05/15 04:28:28;;;;;;;3.00;1.50;;;23.50;99.90;;;;;;5066814;28;20625;-86
2022/05/15 04:30:59;;;;;;;4.25;1.58;;;23.40;99.90;;;;;;5071228;28;20297;-86
2022/05/15 04:33:30;;;;;;;2.92;1.50;;;23.50;99.90;;;;;;5066287;28;20193;-85
2022/05/15 04:36:01;;;;;;;2.95;1.50;;;23.50;99.90;;;;;;5071428;28;20189;-84
2022/05/15 04:38:34;;;;;;;2.70;1.70;;;23.50;99.90;;;;;;5069083;28;20201;-85
2022/05/15 04:41:04;;;;;;;2.03;1.58;;;23.40;99.90;;;;;;5067586;28;20556;-86
2022/05/15 04:43:35;;;;;;;2.80;1.60;;;23.40;99.90;;;;;;5069099;28;20204;-86
2022/05/15 04:46:07;;;;;;;4.47;1.55;;;23.50;99.90;;;;;;5070541;28;20185;-86
2022/05/15 04:48:38;;;;;;;3.42;1.85;;;23.50;99.90;;;;;;5064118;28;20247;-86
2022/05/15 04:51:09;;;;;;;3.80;1.58;;;23.50;99.90;;;;;;5070329;28;20217;-87
2022/05/15 04:53:41;;;;;;;4.35;1.60;;;23.60;99.90;;;;;;5071591;28;20221;-86
2022/05/15 04:56:12;;;;;;;2.47;1.70;;;23.50;99.90;;;;;;5071051;28;20598;-85
2022/05/15 04:58:43;;;;;;;2.90;1.75;;;23.50;99.90;;;;;;5072488;28;20184;-87
2022/05/15 05:01:13;;;;;;;5.40;1.67;;;23.40;99.90;;;;;;5072230;28;20193;-85
2022/05/15 05:03:44;;;;;;;3.70;1.70;;;23.30;99.90;;;;;;5072920;28;20192;-85
2022/05/15 05:06:15;;;;;;;3.90;1.60;;;23.30;99.90;;;;;;5071708;28;20193;-87
2022/05/15 05:08:48;;;;;;;3.03;1.85;;;23.20;99.90;;;;;;5070238;28;20227;-85
2022/05/15 05:11:19;;;;;;;3.30;2.00;;;23.10;99.90;;;;;;5068729;28;20234;-84
2022/05/15 05:13:49;;;;;;;3.45;1.83;;;23.10;99.90;;;;;;5067507;28;20197;-84
2022/05/15 05:16:21;;;;;;;2.75;1.80;;;23.00;99.90;;;;;;5068676;28;20193;-84
2022/05/15 05:18:52;;;;;;;2.80;1.70;;;22.90;99.90;;;;;;5061336;28;20189;-84
2022/05/15 05:21:23;;;;;;;3.95;1.70;;;22.80;99.90;;;;;;5068364;28;20189;-83
2022/05/15 05:23:55;;;;;;;2.15;1.70;;;22.80;99.90;;;;;;5066325;28;20592;-84
2022/05/15 05:26:26;;;;;;;4.20;1.83;;;22.60;99.90;;;;;;5068011;28;20185;-84
2022/05/15 05:28:57;;;;;;;4.65;2.58;;;22.60;99.90;;;;;;5068241;28;20663;-84
2022/05/15 05:31:27;;;;;;;4.90;2.30;;;22.50;99.90;;;;;;5065140;28;20216;-83
2022/05/15 05:33:58;;;;;;;6.30;2.30;;;22.50;99.90;;;;;;5058923;28;20194;-84
2022/05/15 05:36:29;;;;;;;4.63;2.25;;;22.40;99.90;;;;;;5064381;28;20229;-84
2022/05/15 05:39:01;;;;;;;6.75;2.60;;;22.40;99.90;;;;;;5063098;28;20193;-84
2022/05/15 05:41:32;;;;;;;3.72;2.60;;;22.40;99.90;;;;;;5062991;28;20197;-85
2022/05/15 05:44:02;;;;;;;7.88;2.75;;;22.30;99.90;;;;;;5053848;28;20681;-84
2022/05/15 05:46:33;;;;;;;4.45;2.50;;;22.30;99.90;;;;;;5057641;28;20201;-84
2022/05/15 05:49:04;;;;;;;4.43;2.65;;;22.30;99.90;;;;;;5061241;28;20193;-84
2022/05/15 05:51:34;;;;;;;3.58;2.25;;;22.30;99.90;;;;;;5065560;28;20227;-85
2022/05/15 05:54:07;;;;;;;6.60;2.40;;;22.20;99.90;;;;;;5062923;28;20641;-84
2022/05/15 05:56:38;;;;;;;5.70;2.10;;;22.20;99.90;;;;;;5062684;28;20537;-84
2022/05/15 05:59:08;;;;;;;6.03;2.20;;;22.10;99.90;;;;;;5052994;28;20190;-85
2022/05/15 06:01:39;;;;;;;3.88;2.13;;;22.10;99.90;;;;;;5055579;28;20208;-84
2022/05/15 06:06:56;;;;;;;4.47;2.30;;;22.00;99.90;;;;;;5065562;28;20196;-84
2022/05/15 06:09:29;;;;;;;3.55;2.08;;;22.00;99.90;;;;;;5053877;28;20279;-84
2022/05/15 06:11:59;;;;;;;4.25;2.10;;;21.90;99.90;;;;;;5057963;28;20200;-84
2022/05/15 06:14:30;;;;;;;4.97;1.85;;;21.90;99.90;;;;;;5059091;28;20197;-84
2022/05/15 06:17:01;;;;;;;3.28;1.92;;;21.90;99.90;;;;;;5062623;28;20272;-84
2022/05/15 06:19:32;;;;;;;3.70;2.03;;;21.90;99.90;;;;;;5051810;28;20209;-84
2022/05/15 06:22:03;;;;;;;2.17;1.88;;;21.80;99.90;;;;;;5068138;28;20285;-85
2022/05/15 06:24:35;;;;;;;4.47;2.30;;;21.80;99.90;;;;;;5066120;28;20251;-84
2022/05/15 06:27:06;;;;;;;3.22;1.80;;;21.70;99.90;;;;;;5054493;28;20197;-84
2022/05/15 06:29:38;;;;;;;4.60;1.90;;;21.70;99.90;;;;;;5066133;28;20193;-84
2022/05/15 06:32:09;;;;;;;2.75;1.83;;;21.70;99.90;;;;;;5059464;28;20203;-84
2022/05/15 06:34:40;;;;;;;3.42;1.80;;;21.70;99.90;;;;;;5060911;28;20625;-85
2022/05/15 06:37:11;;;;;;;6.70;2.05;;;21.60;99.90;;;;;;5059769;28;20208;-84
2022/05/15 06:39:43;;;;;;;4.32;2.30;;;21.60;99.90;;;;;;5056989;28;20235;-84
2022/05/15 06:42:14;;;;;;;5.82;2.20;;;21.50;99.90;;;;;;5060059;28;20194;-84
2022/05/15 06:44:45;;;;;;;4.03;2.10;;;21.50;99.90;;;;;;5071642;28;20193;-84
2022/05/15 06:47:15;;;;;;;2.65;1.80;;;21.40;99.90;;;;;;5054794;28;20668;-85
2022/05/15 06:49:46;;;;;;;3.45;2.00;;;21.40;99.90;;;;;;5058095;28;20193;-85
2022/05/15 06:52:16;;;;;;;4.70;2.60;;;21.40;99.90;;;;;;5062213;28;20225;-85
2022/05/15 06:54:49;;;;;;;5.35;2.40;;;21.40;99.90;;;;;;5055194;28;20200;-84
2022/05/15 06:57:33;;;;;;;3.97;2.20;;;21.30;99.90;;;;;;5063113;28;20242;-84
2022/05/15 07:00:08;;;;;;;7.65;3.22;;;21.30;99.90;;;;;;5060415;28;20595;-84
2022/05/15 07:02:40;;;;;;;5.45;2.60;;;21.30;99.90;;;;;;5060543;28;20238;-84
2022/05/15 07:05:12;;;;;;;3.88;2.53;;;21.30;99.90;;;;;;5066319;28;20352;-84
2022/05/15 07:07:44;;;;;;;6.07;2.70;;;21.30;99.90;;;;;;5071110;28;20184;-84
2022/05/15 07:10:17;;;;;;;6.85;2.65;;;21.30;99.90;;;;;;5062732;28;20225;-87
2022/05/15 07:12:48;;;;;;;6.40;3.03;;;21.20;99.90;;;;;;5063459;28;20200;-84
2022/05/15 07:15:18;;;;;;;5.43;2.70;;;21.20;99.90;;;;;;5065228;28;20193;-86
2022/05/15 07:17:49;;;;;;;4.95;2.80;;;21.20;99.90;;;;;;5065160;28;20231;-85
2022/05/15 07:20:20;;;;;;;6.30;2.85;;;21.20;99.90;;;;;;5068311;28;20201;-84
2022/05/15 07:22:50;;;;;;;6.63;2.75;;;21.20;99.90;;;;;;5071147;28;20189;-85
2022/05/15 07:25:23;;;;;;;4.38;2.33;;;21.20;99.90;;;;;;5064025;28;20193;-85
2022/05/15 07:27:53;;;;;;;4.28;2.50;;;21.10;99.90;;;;;;5066193;28;20201;-84
2022/05/15 07:30:24;;;;;;;6.50;2.70;;;21.20;99.90;;;;;;5064900;28;20749;-86
2022/05/15 07:32:55;;;;;;;5.95;2.92;;;21.10;99.90;;;;;;5070449;28;20192;-86
2022/05/15 07:35:25;;;;;;;4.78;2.80;;;21.20;99.90;;;;;;5066575;28;20221;-86
2022/05/15 07:37:56;;;;;;;5.80;2.53;;;21.10;99.90;;;;;;5065281;28;20189;-84
2022/05/15 07:40:29;;;;;;;7.75;3.13;;;21.10;99.90;;;;;;5067492;28;20239;-85
2022/05/15 07:43:00;;;;;;;7.30;2.90;;;21.10;99.90;;;;;;5064980;28;20194;-85
2022/05/15 07:45:30;;;;;;;5.95;3.25;;;21.10;99.90;;;;;;5066823;28;20637;-84
2022/05/15 07:48:01;;;;;;;8.30;3.22;;;21.00;99.90;;;;;;5071737;28;20219;-85
2022/05/15 07:50:32;;;;;;;4.97;2.80;;;21.00;99.90;;;;;;5065312;28;20221;-84
2022/05/15 07:53:03;;;;;;;6.20;3.20;;;21.00;99.90;;;;;;5069173;28;20244;-84
2022/05/15 07:55:35;;;;;;;6.13;3.30;;;21.00;99.90;;;;;;5064968;28;20859;-84
2022/05/15 07:58:06;;;;;;;5.97;3.45;;;21.00;99.90;;;;;;5061342;28;20548;-84
2022/05/15 08:00:37;;;;;;;13.93;7.97;;;21.00;99.90;;;;;;5066712;28;22143;-84
2022/05/15 08:03:09;;;;;;;12.98;6.28;;;21.00;99.90;;;;;;5065800;28;20243;-83
2022/05/15 08:08:27;;;;;;;11.55;4.80;;;20.90;99.90;;;;;;5060310;28;20239;-84
2022/05/15 08:11:00;;;;;;;102.40;72.75;;;20.90;99.90;;;;;;5064534;28;20750;-84
2022/05/15 08:13:31;;;;;;;26.70;19.30;;;20.90;99.90;;;;;;5070526;28;20197;-83
2022/05/15 08:16:02;;;;;;;23.58;16.10;;;20.90;99.90;;;;;;5068908;28;20201;-84
2022/05/15 08:24:06;;;;;;;9.23;4.38;;;21.00;99.90;;;;;;5065857;28;20713;-84
2022/05/15 08:26:39;;;;;;;9.15;5.68;;;20.90;99.90;;;;;;5062559;28;20211;-82
2022/05/15 08:29:10;;;;;;;10.85;5.93;;;20.90;99.90;;;;;;5067717;28;20279;-82
2022/05/15 08:31:41;;;;;;;9.70;4.80;;;20.90;99.90;;;;;;5063780;28;20274;-83
2022/05/15 08:34:12;;;;;;;10.10;5.38;;;20.90;99.90;;;;;;5063256;28;20244;-84
2022/05/15 08:36:44;;;;;;;8.93;4.57;;;20.90;99.90;;;;;;5064267;28;20196;-82
2022/05/15 08:39:15;;;;;;;10.45;5.55;;;20.90;99.90;;;;;;5062056;28;20197;-84
2022/05/15 08:41:51;;;;;;;6.55;4.32;;;20.90;99.90;;;;;;5065163;28;20676;-83
2022/05/15 08:44:29;;;;;;;8.50;4.80;;;20.90;99.90;;;;;;5067406;28;20196;-82
2022/05/15 08:47:19;;;;;;;9.52;5.40;;;20.90;99.90;;;;;;5059633;28;20198;-81
2022/05/15 08:49:54;;;;;;;7.60;4.45;;;20.90;99.90;;;;;;5063041;28;20197;-82
2022/05/15 08:52:32;;;;;;;11.48;5.30;;;20.90;99.90;;;;;;5063616;28;20280;-84
2022/05/15 08:55:08;;;;;;;12.35;6.35;;;20.80;99.90;;;;;;5061535;28;20205;-83
2022/05/15 08:57:46;;;;;;;8.05;5.30;;;20.80;99.90;;;;;;5065116;28;20189;-83
2022/05/15 09:00:21;;;;;;;10.27;4.97;;;20.80;99.90;;;;;;5060138;28;20259;-84
2022/05/15 09:02:51;;;;;;;12.05;5.40;;;20.90;99.90;;;;;;5062656;28;20196;-82
2022/05/15 09:05:27;;;;;;;9.02;4.72;;;20.80;99.90;;;;;;5063320;28;20193;-84
2022/05/15 09:08:03;;;;;;;10.52;5.72;;;20.80;99.90;;;;;;5065546;28;20605;-84
2022/05/15 09:10:39;;;;;;;9.38;5.07;;;20.80;99.90;;;;;;5074521;28;20200;-84
2022/05/15 09:13:22;;;;;;;11.98;5.40;;;20.80;99.90;;;;;;5062267;28;20197;-85
2022/05/15 09:16:00;;;;;;;8.73;5.20;;;20.80;99.90;;;;;;5061085;28;20193;-85
2022/05/15 09:18:33;;;;;;;12.23;5.85;;;20.70;99.90;;;;;;5058783;28;20201;-83
2022/05/15 09:21:10;;;;;;;12.38;5.68;;;20.70;99.90;;;;;;5067971;28;20205;-84
2022/05/15 09:23:44;;;;;;;11.40;5.63;;;20.70;99.90;;;;;;5060704;28;20194;-84
2022/05/15 09:26:22;;;;;;;12.00;5.97;;;20.70;99.90;;;;;;5070969;28;20281;-84
2022/05/15 09:29:00;;;;;;;11.48;5.60;;;20.50;99.90;;;;;;5062042;28;20358;-83
2022/05/15 09:31:33;;;;;;;12.25;5.53;;;20.60;99.90;;;;;;5064045;28;20220;-83
2022/05/15 09:34:07;;;;;;;11.70;5.78;;;20.50;99.90;;;;;;5061149;28;20283;-83
2022/05/15 09:36:45;;;;;;;13.57;6.10;;;20.50;99.90;;;;;;5060036;28;20193;-83
2022/05/15 09:39:27;;;;;;;11.70;6.13;;;20.50;99.90;;;;;;5057373;28;20242;-83
2022/05/15 09:44:54;;;;;;;11.48;6.00;;;20.40;99.90;;;;;;5061992;28;20200;-81
2022/05/15 09:47:32;;;;;;;10.75;5.35;;;20.40;99.90;;;;;;5056974;28;20223;-80
2022/05/15 09:50:02;;;;;;;9.70;5.72;;;20.40;99.90;;;;;;5066072;28;20565;-81
2022/05/15 09:52:36;;;;;;;12.73;6.72;;;20.40;99.90;;;;;;5059443;28;20267;-81
2022/05/15 09:55:23;;;;;;;11.63;6.65;;;20.40;99.90;;;;;;5066675;28;20200;-83
2022/05/15 09:57:59;;;;;;;15.00;7.35;;;20.40;99.90;;;;;;5064472;28;20667;-81
2022/05/15 10:00:33;;;;;;;12.98;6.55;;;20.40;99.90;;;;;;5065746;28;20267;-81
2022/05/15 10:03:18;;;;;;;13.70;8.00;;;20.30;99.90;;;;;;5060225;28;20196;-81
2022/05/15 10:06:01;;;;;;;12.45;7.70;;;20.30;99.90;;;;;;5062503;28;20211;-81
2022/05/15 10:08:32;;;;;;;12.75;7.47;;;20.20;99.90;;;;;;5055330;28;20599;-80
2022/05/15 10:11:04;;;;;;;11.85;7.13;;;20.20;99.90;;;;;;5061859;28;20213;-80
2022/05/15 10:13:38;;;;;;;11.25;6.28;;;20.20;99.90;;;;;;5058662;28;21629;-80
2022/05/15 10:16:16;;;;;;;15.18;8.05;;;20.20;99.90;;;;;;5061987;28;20712;-82
2022/05/15 10:18:53;;;;;;;12.23;7.20;;;20.20;99.90;;;;;;5062337;28;20205;-81
2022/05/15 10:21:25;;;;;;;11.98;6.88;;;20.20;99.90;;;;;;5065439;28;20197;-81
2022/05/15 10:24:01;;;;;;;11.70;7.00;;;20.20;99.90;;;;;;5060838;28;20193;-80
2022/05/15 10:26:37;;;;;;;13.73;7.50;;;20.20;99.90;;;;;;5067258;28;20200;-80
2022/05/15 10:29:14;;;;;;;11.65;7.03;;;20.20;99.90;;;;;;5068234;28;20246;-80
2022/05/15 10:31:51;;;;;;;14.60;8.65;;;20.20;99.90;;;;;;5065302;28;20259;-80
2022/05/15 10:34:25;;;;;;;14.82;8.60;;;20.30;99.90;;;;;;5060275;28;20585;-81
2022/05/15 10:37:08;;;;;;;17.38;8.82;;;20.20;99.90;;;;;;5067609;28;20200;-81
2022/05/15 10:40:08;;;;;;;13.77;9.07;;;20.20;99.90;;;;;;5066149;28;20220;-81
2022/05/15 10:42:46;;;;;;;19.17;9.77;;;20.20;99.90;;;;;;5071076;28;20617;-81
2022/05/15 10:45:22;;;;;;;15.75;8.90;;;20.10;99.90;;;;;;5069528;28;20200;-80
2022/05/15 10:48:06;;;;;;;16.55;9.00;;;20.10;99.90;;;;;;5068626;28;20524;-80
2022/05/15 10:50:47;;;;;;;17.17;9.50;;;20.10;99.90;;;;;;5071627;28;20267;-81
2022/05/15 10:59:37;;;;;;;12.55;8.02;;;20.00;99.90;;;;;;5065615;28;20200;-80
2022/05/15 11:02:36;;;;;;;12.48;8.10;;;20.10;99.90;;;;;;5069523;28;20250;-79
2022/05/15 11:05:14;;;;;;;16.42;8.05;;;20.00;99.90;;;;;;5066154;28;20717;-80
2022/05/15 11:07:51;;;;;;;14.38;7.80;;;20.00;99.90;;;;;;5070218;28;20250;-80
2022/05/15 11:10:28;;;;;;;13.95;7.28;;;20.00;99.90;;;;;;5068620;28;20220;-81
2022/05/15 11:13:11;;;;;;;11.73;7.32;;;20.10;99.90;;;;;;5069707;28;20222;-80
2022/05/15 11:15:53;;;;;;;14.85;7.53;;;20.10;99.90;;;;;;5065727;28;20690;-81
2022/05/15 11:18:47;;;;;;;13.57;7.25;;;20.10;99.90;;;;;;5070969;28;20192;-81
2022/05/15 11:21:26;;;;;;;14.55;6.50;;;20.10;99.90;;;;;;5070546;28;20197;-80
2022/05/15 11:24:01;;;;;;;8.93;5.97;;;20.10;99.90;;;;;;5070196;28;20254;-80
2022/05/15 11:26:38;;;;;;;10.65;5.57;;;20.10;99.90;;;;;;5062947;28;21124;-81
2022/05/15 11:29:12;;;;;;;8.23;5.50;;;20.10;99.90;;;;;;5068856;28;20197;-81
2022/05/15 11:31:50;;;;;;;11.30;5.78;;;20.10;99.90;;;;;;5072995;28;20209;-81
2022/05/15 11:34:21;;;;;;;7.32;4.70;;;20.00;99.90;;;;;;5069148;28;20201;-81
2022/05/15 11:36:54;;;;;;;7.03;4.53;;;20.00;99.90;;;;;;5066610;28;20239;-81
2022/05/15 11:39:27;;;;;;;7.28;4.50;;;20.00;99.90;;;;;;5069589;28;20242;-83
2022/05/15 11:42:17;;;;;;;8.50;4.60;;;19.90;99.90;;;;;;5070389;28;20720;-81
2022/05/15 11:44:50;;;;;;;7.57;4.55;;;19.90;99.90;;;;;;5072305;28;20243;-80
2022/05/15 11:47:34;;;;;;;6.85;4.10;;;19.90;99.90;;;;;;5071616;28;20189;-81
2022/05/15 11:50:17;;;;;;;7.45;3.90;;;19.80;99.90;;;;;;5069985;28;20197;-82
2022/05/15 11:53:08;;;;;;;5.90;3.78;;;19.80;99.90;;;;;;5067881;28;20290;-83
2022/05/15 11:55:50;;;;;;;6.75;3.58;;;19.70;99.90;;;;;;5070927;28;20208;-83
2022/05/15 11:58:41;;;;;;;5.32;3.47;;;19.70;99.90;;;;;;5065278;28;20193;-83
2022/05/15 12:01:20;;;;;;;5.93;3.35;;;19.70;99.90;;;;;;5067283;28;20188;-82
2022/05/15 12:03:53;;;;;;;4.05;2.80;;;19.60;99.90;;;;;;5066700;28;20705;-83
2022/05/15 12:06:26;;;;;;;4.13;2.92;;;19.60;99.90;;;;;;5061796;28;20251;-82
2022/05/15 12:09:31;;;;;;;4.75;2.92;;;19.60;99.90;;;;;;5062588;28;20233;-82
2022/05/15 12:12:56;;;;;;;5.18;2.65;;;19.60;99.90;;;;;;5064131;28;20212;-83
2022/05/15 12:15:45;;;;;;;5.43;2.60;;;19.50;99.90;;;;;;5067449;28;20246;-82
2022/05/15 12:18:28;;;;;;;3.60;2.33;;;19.40;99.90;;;;;;5068533;28;20201;-82
2022/05/15 12:20:59;;;;;;;3.55;2.22;;;19.50;99.90;;;;;;5065601;28;20251;-84
2022/05/15 12:23:37;;;;;;;3.47;2.20;;;19.40;99.90;;;;;;5067380;28;20247;-82
2022/05/15 12:26:20;;;;;;;4.00;1.90;;;19.40;99.90;;;;;;5067156;28;20197;-83
2022/05/15 12:28:59;;;;;;;2.58;1.90;;;19.40;99.90;;;;;;5066873;28;20193;-83
2022/05/15 12:31:38;;;;;;;2.42;2.00;;;19.30;99.90;;;;;;5066647;28;20238;-83
2022/05/15 12:34:12;;;;;;;3.03;2.05;;;19.30;99.90;;;;;;5063383;28;20679;-82
2022/05/15 12:36:46;;;;;;;4.72;2.10;;;19.30;99.90;;;;;;5067227;28;20208;-83
2022/05/15 12:39:23;;;;;;;2.58;1.80;;;19.30;99.90;;;;;;5067150;28;20231;-84
2022/05/15 12:41:55;;;;;;;2.63;1.85;;;19.20;99.90;;;;;;5069206;28;20250;-84
2022/05/15 12:44:34;;;;;;;2.33;1.80;;;19.20;99.90;;;;;;5068269;28;20632;-83
2022/05/15 12:47:06;;;;;;;2.38;1.80;;;19.20;99.90;;;;;;5061952;28;20242;-83
2022/05/15 12:49:41;;;;;;;2.22;1.63;;;19.10;99.90;;;;;;5065990;28;20201;-83
2022/05/15 12:52:17;;;;;;;3.03;1.98;;;19.10;99.90;;;;;;5062622;28;20690;-82
2022/05/15 12:54:56;;;;;;;2.60;1.70;;;19.00;99.90;;;;;;5057787;28;20671;-82
2022/05/15 12:57:29;;;;;;;5.10;1.95;;;19.00;99.90;;;;;;5058705;28;20189;-83
2022/05/15 13:00:00;;;;;;;6.43;2.30;;;19.00;99.90;;;;;;5053914;28;20186;-82
2022/05/15 13:02:37;;;;;;;3.03;2.22;;;19.00;99.90;;;;;;5064630;28;20201;-82
2022/05/15 13:05:20;;;;;;;3.47;2.20;;;19.00;99.90;;;;;;5070470;28;20238;-82
2022/05/15 13:07:57;;;;;;;3.10;2.25;;;19.00;99.90;;;;;;5067367;28;20246;-82
2022/05/15 13:10:30;;;;;;;2.58;2.08;;;19.00;99.90;;;;;;5067373;28;20280;-82
2022/05/15 13:13:08;;;;;;;3.08;2.10;;;18.90;99.90;;;;;;5057640;28;20212;-82
2022/05/15 13:15:39;;;;;;;4.00;2.13;;;18.90;99.90;;;;;;5057377;28;20559;-82
2022/05/15 13:18:12;;;;;;;3.08;2.00;;;18.80;99.90;;;;;;5053692;28;20631;-82
2022/05/15 13:20:43;;;;;;;2.67;2.00;;;18.80;99.90;;;;;;5058733;28;20196;-83
2022/05/15 13:23:16;;;;;;;3.92;2.25;;;18.80;99.90;;;;;;5058572;28;20193;-83
2022/05/15 13:25:51;;;;;;;3.30;2.33;;;18.60;99.90;;;;;;5064477;28;20197;-83
2022/05/15 13:28:24;;;;;;;2.60;2.20;;;18.60;99.90;;;;;;5061668;28;20189;-83
2022/05/15 13:30:55;;;;;;;4.45;2.08;;;18.50;99.90;;;;;;5053576;28;20189;-83
2022/05/15 13:33:29;;;;;;;4.68;2.15;;;18.50;99.90;;;;;;5057276;28;20296;-83
2022/05/15 13:36:01;;;;;;;3.10;2.00;;;18.40;99.90;;;;;;5053294;28;20190;-83
2022/05/15 13:43:17;;;;;;;4.35;1.90;;;18.50;99.90;;;;;;5067269;28;20292;-83
2022/05/15 13:44:16;;;;;;;3.30;1.88;;;18.50;99.90;;;;;;5059267;28;20219;-83
2022/05/15 13:47:03;;;;;;;2.17;1.50;;;18.50;99.90;;;;;;5055098;28;20194;-83